createdAt,value
2017-03-21T00:00:30.719Z,62.99
2017-03-21T00:01:11.296Z,62.99
2017-03-21T00:01:51.879Z,62.9
2017-03-21T00:02:32.459Z,62.99
2017-03-21T00:03:13.036Z,63.18
2017-03-21T00:03:53.621Z,63.18
2017-03-21T00:04:34.209Z,63.18
2017-03-21T00:05:21.617Z,63.09
2017-03-21T00:06:02.187Z,63.09
2017-03-21T00:06:42.764Z,62.99
2017-03-21T00:07:23.336Z,63.09
2017-03-21T00:09:15.942Z,63.48
2017-03-21T00:09:56.518Z,63.57
2017-03-21T00:10:37.104Z,62.99
2017-03-21T00:11:17.685Z,63.09
2017-03-21T00:11:58.255Z,63.28
2017-03-21T00:12:38.834Z,63.09
2017-03-21T00:13:19.415Z,63.09
2017-03-21T00:14:00.005Z,63.28
2017-03-21T00:14:40.571Z,62.99
2017-03-21T00:15:21.156Z,63.18
2017-03-21T00:16:01.734Z,63.09
2017-03-21T00:16:42.316Z,63.09
2017-03-21T00:17:22.897Z,62.71
2017-03-21T00:18:03.478Z,62.99
2017-03-21T00:18:44.058Z,62.99
2017-03-21T00:19:24.639Z,63.09
2017-03-21T00:20:05.229Z,62.99
2017-03-21T00:20:45.821Z,62.99
2017-03-21T00:21:26.399Z,63.28
2017-03-21T00:22:06.982Z,62.99
2017-03-21T00:22:47.573Z,63.09
2017-03-21T00:23:28.159Z,63.18
2017-03-21T00:24:08.730Z,63.28
2017-03-21T00:24:49.314Z,63.09
2017-03-21T00:25:29.903Z,63.09
2017-03-21T00:26:10.483Z,62.99
2017-03-21T00:26:51.064Z,62.71
2017-03-21T00:27:31.651Z,62.99
2017-03-21T00:28:12.237Z,63.09
2017-03-21T00:28:52.814Z,62.99
2017-03-21T00:29:33.384Z,62.99
2017-03-21T00:30:13.980Z,63.18
2017-03-21T00:30:54.569Z,62.99
2017-03-21T00:31:35.152Z,62.99
2017-03-21T00:32:15.742Z,62.99
2017-03-21T00:32:56.323Z,63.09
2017-03-21T00:33:36.914Z,63.09
2017-03-21T00:34:17.499Z,63.09
2017-03-21T00:34:58.076Z,62.99
2017-03-21T00:35:38.656Z,62.8
2017-03-21T00:36:19.230Z,63.09
2017-03-21T00:36:59.815Z,62.99
2017-03-21T00:37:40.392Z,63.18
2017-03-21T00:38:20.967Z,63.09
2017-03-21T00:39:01.551Z,63.09
2017-03-21T00:39:42.127Z,62.8
2017-03-21T00:40:22.713Z,62.99
2017-03-21T00:41:03.297Z,62.9
2017-03-21T00:41:43.875Z,62.8
2017-03-21T00:42:24.453Z,63.09
2017-03-21T00:43:05.039Z,62.8
2017-03-21T00:45:22.981Z,63.38
2017-03-21T00:46:03.567Z,62.99
2017-03-21T00:46:58.867Z,62.9
2017-03-21T00:47:39.451Z,63.09
2017-03-21T00:48:20.033Z,62.8
2017-03-21T00:49:00.611Z,63.18
2017-03-21T00:49:41.190Z,63.18
2017-03-21T00:50:21.770Z,63.28
2017-03-21T00:51:02.346Z,63.38
2017-03-21T00:51:42.932Z,63.28
2017-03-21T00:52:23.502Z,63.48
2017-03-21T00:53:04.072Z,63.48
2017-03-21T00:53:44.640Z,63.48
2017-03-21T00:54:25.216Z,63.48
2017-03-21T00:55:05.799Z,62.99
2017-03-21T00:55:46.369Z,63.18
2017-03-21T00:56:26.950Z,63.48
2017-03-21T00:57:07.527Z,62.99
2017-03-21T00:57:48.108Z,63.38
2017-03-21T00:58:28.687Z,63.48
2017-03-21T00:59:16.079Z,63.38
2017-03-21T00:59:56.667Z,62.99
2017-03-21T01:00:37.244Z,63.28
2017-03-21T01:01:17.818Z,63.18
2017-03-21T01:01:58.425Z,63.18
2017-03-21T01:02:39.003Z,63.09
2017-03-21T01:03:19.584Z,63.18
2017-03-21T01:04:00.155Z,63.18
2017-03-21T01:04:40.737Z,62.99
2017-03-21T01:05:21.319Z,62.99
2017-03-21T01:06:01.899Z,63.18
2017-03-21T01:06:42.473Z,62.99
2017-03-21T01:07:23.060Z,63.28
2017-03-21T01:08:03.639Z,63.18
2017-03-21T01:08:44.208Z,63.09
2017-03-21T01:09:24.793Z,63.09
2017-03-21T01:10:05.371Z,63.18
2017-03-21T01:10:45.936Z,63.18
2017-03-21T01:11:26.518Z,63.09
2017-03-21T01:12:07.073Z,63.18
2017-03-21T01:14:25.028Z,62.99
2017-03-21T01:15:05.601Z,62.99
2017-03-21T01:15:46.182Z,62.99
2017-03-21T01:16:26.766Z,63.48
2017-03-21T01:17:07.344Z,63.38
2017-03-21T01:17:47.926Z,63.28
2017-03-21T01:18:28.504Z,63.57
2017-03-21T01:19:09.086Z,63.57
2017-03-21T01:19:49.668Z,63.48
2017-03-21T01:20:30.246Z,63.67
2017-03-21T01:21:10.821Z,63.48
2017-03-21T01:21:51.404Z,63.76
2017-03-21T01:22:31.982Z,63.67
2017-03-21T01:23:12.563Z,63.67
2017-03-21T01:23:53.141Z,63.57
2017-03-21T01:24:33.720Z,63.57
2017-03-21T01:25:14.303Z,63.57
2017-03-21T01:25:54.869Z,63.76
2017-03-21T01:26:35.449Z,63.76
2017-03-21T01:27:16.041Z,63.57
2017-03-21T01:27:56.613Z,63.48
2017-03-21T01:28:37.187Z,63.48
2017-03-21T01:29:17.763Z,63.67
2017-03-21T01:29:58.339Z,63.57
2017-03-21T01:30:38.925Z,63.76
2017-03-21T01:31:19.514Z,63.57
2017-03-21T01:32:00.095Z,63.48
2017-03-21T01:32:40.683Z,63.76
2017-03-21T01:33:21.264Z,63.38
2017-03-21T01:34:01.843Z,63.76
2017-03-21T01:34:42.411Z,63.67
2017-03-21T01:37:00.342Z,63.67
2017-03-21T01:37:40.928Z,64.25
2017-03-21T01:38:21.517Z,64.34
2017-03-21T01:39:02.098Z,64.25
2017-03-21T01:39:42.673Z,64.15
2017-03-21T01:40:23.265Z,63.95
2017-03-21T01:41:03.841Z,64.15
2017-03-21T01:41:44.428Z,64.05
2017-03-21T01:42:25.006Z,64.05
2017-03-21T01:43:05.587Z,64.15
2017-03-21T01:43:46.177Z,64.25
2017-03-21T01:44:26.751Z,64.63
2017-03-21T01:45:07.340Z,64.73
2017-03-21T01:45:47.918Z,64.82
2017-03-21T01:46:28.505Z,64.82
2017-03-21T01:47:09.077Z,64.63
2017-03-21T01:47:49.656Z,64.53
2017-03-21T01:48:30.233Z,64.92
2017-03-21T01:49:10.808Z,64.73
2017-03-21T01:49:51.397Z,64.43
2017-03-21T01:50:31.978Z,64.63
2017-03-21T01:51:12.553Z,64.63
2017-03-21T01:51:53.143Z,64.73
2017-03-21T01:52:33.719Z,64.63
2017-03-21T01:53:14.317Z,64.43
2017-03-21T01:53:54.897Z,64.63
2017-03-21T01:54:35.467Z,64.73
2017-03-21T01:55:16.070Z,64.63
2017-03-21T01:55:56.640Z,64.63
2017-03-21T01:56:37.236Z,64.63
2017-03-21T01:57:17.812Z,64.63
2017-03-21T01:57:58.389Z,64.43
2017-03-21T01:58:38.975Z,64.82
2017-03-21T01:59:19.559Z,64.34
2017-03-21T02:00:00.144Z,64.53
2017-03-21T02:00:40.724Z,64.43
2017-03-21T02:01:21.299Z,64.25
2017-03-21T02:03:19.020Z,64.34
2017-03-21T02:03:59.600Z,64.25
2017-03-21T02:04:40.180Z,64.34
2017-03-21T02:05:20.770Z,64.53
2017-03-21T02:06:01.345Z,64.34
2017-03-21T02:06:41.923Z,64.53
2017-03-21T02:07:22.493Z,64.53
2017-03-21T02:08:03.080Z,64.53
2017-03-21T02:08:43.659Z,64.15
2017-03-21T02:09:24.244Z,64.34
2017-03-21T02:10:04.830Z,64.25
2017-03-21T02:10:45.413Z,64.43
2017-03-21T02:12:38.032Z,64.15
2017-03-21T02:13:18.612Z,64.25
2017-03-21T02:13:59.186Z,64.53
2017-03-21T02:14:39.767Z,64.53
2017-03-21T02:15:20.349Z,64.25
2017-03-21T02:16:00.927Z,64.34
2017-03-21T02:16:41.500Z,64.25
2017-03-21T02:17:22.083Z,64.34
2017-03-21T02:18:02.644Z,64.53
2017-03-21T02:18:43.226Z,64.53
2017-03-21T02:19:23.806Z,64.34
2017-03-21T02:20:04.368Z,64.43
2017-03-21T02:20:44.948Z,64.25
2017-03-21T02:21:25.530Z,64.47
2017-03-21T02:22:06.110Z,64.53
2017-03-21T02:22:46.698Z,64.34
2017-03-21T02:23:27.271Z,64.25
2017-03-21T02:24:07.836Z,64.63
2017-03-21T02:24:48.424Z,64.25
2017-03-21T02:25:29.010Z,64.25
2017-03-21T02:26:09.590Z,64.25
2017-03-21T02:26:50.164Z,64.53
2017-03-21T02:27:30.747Z,64.25
2017-03-21T02:28:11.335Z,64.82
2017-03-21T02:28:51.916Z,64.43
2017-03-21T02:29:32.502Z,64.34
2017-03-21T02:30:13.716Z,64.63
2017-03-21T02:30:55.377Z,64.82
2017-03-21T02:31:36.031Z,64.73
2017-03-21T02:32:16.611Z,64.82
2017-03-21T02:32:57.175Z,64.82
2017-03-21T02:33:37.762Z,64.53
2017-03-21T02:34:18.339Z,64.63
2017-03-21T02:34:58.921Z,64.82
2017-03-21T02:35:40.732Z,64.43
2017-03-21T02:36:22.242Z,64.92
2017-03-21T02:37:03.628Z,64.73
2017-03-21T02:37:43.381Z,64.73
2017-03-21T02:38:23.966Z,64.73
2017-03-21T02:40:11.479Z,64.25
2017-03-21T02:40:52.060Z,64.63
2017-03-21T02:41:32.639Z,64.53
2017-03-21T02:42:13.210Z,64.53
2017-03-21T02:42:53.781Z,64.73
2017-03-21T02:43:34.366Z,64.63
2017-03-21T02:44:14.936Z,64.53
2017-03-21T02:44:55.513Z,64.53
2017-03-21T02:45:36.413Z,64.53
2017-03-21T02:46:16.995Z,64.73
2017-03-21T02:46:57.574Z,64.82
2017-03-21T02:47:38.142Z,64.34
2017-03-21T02:48:18.725Z,64.56
2017-03-21T02:48:59.311Z,64.82
2017-03-21T02:49:39.898Z,64.34
2017-03-21T02:50:20.481Z,64.15
2017-03-21T02:51:01.060Z,64.47
2017-03-21T02:51:41.643Z,64.43
2017-03-21T02:52:22.560Z,64.15
2017-03-21T02:53:03.138Z,64.05
2017-03-21T02:53:43.716Z,64.56
2017-03-21T02:54:24.296Z,64.43
2017-03-21T02:55:04.894Z,64.05
2017-03-21T02:55:45.439Z,64.43
2017-03-21T02:56:26.033Z,64.28
2017-03-21T02:57:06.623Z,64.34
2017-03-21T02:57:47.203Z,64.53
2017-03-21T03:00:05.149Z,64.63
2017-03-21T03:00:45.736Z,64.28
2017-03-21T03:01:26.322Z,64.34
2017-03-21T03:02:06.899Z,64.25
2017-03-21T03:02:47.471Z,64.25
2017-03-21T03:03:28.053Z,64.18
2017-03-21T03:04:08.636Z,64.25
2017-03-21T03:04:49.219Z,64.28
2017-03-21T03:05:29.805Z,64.18
2017-03-21T03:06:10.391Z,64.43
2017-03-21T03:06:50.970Z,64.47
2017-03-21T03:07:31.558Z,64.63
2017-03-21T03:08:12.137Z,64.53
2017-03-21T03:08:52.710Z,64.05
2017-03-21T03:09:33.292Z,64.37
2017-03-21T03:10:13.872Z,64.34
2017-03-21T03:10:54.450Z,64.53
2017-03-21T03:11:35.031Z,64.28
2017-03-21T03:12:15.607Z,64.86
2017-03-21T03:12:56.177Z,64.66
2017-03-21T03:13:36.758Z,64.76
2017-03-21T03:14:17.337Z,64.76
2017-03-21T03:14:57.917Z,64.53
2017-03-21T03:15:38.497Z,64.56
2017-03-21T03:16:19.081Z,64.53
2017-03-21T03:16:59.664Z,64.56
2017-03-21T03:17:40.252Z,64.56
2017-03-21T03:18:20.835Z,64.34
2017-03-21T03:19:01.410Z,64.25
2017-03-21T03:19:41.988Z,64.56
2017-03-21T03:20:22.569Z,64.43
2017-03-21T03:21:03.154Z,64.34
2017-03-21T03:21:43.735Z,64.25
2017-03-21T03:22:24.320Z,64.43
2017-03-21T03:23:04.893Z,64.34
2017-03-21T03:23:45.478Z,64.53
2017-03-21T03:24:26.064Z,64.86
2017-03-21T03:25:06.644Z,64.53
2017-03-21T03:25:47.236Z,64.73
2017-03-21T03:26:27.819Z,64.53
2017-03-21T03:27:08.397Z,64.25
2017-03-21T03:27:48.975Z,64.63
2017-03-21T03:28:29.558Z,64.63
2017-03-21T03:29:10.141Z,64.53
2017-03-21T03:29:50.712Z,64.63
2017-03-21T03:30:31.288Z,64.63
2017-03-21T03:31:11.868Z,64.53
2017-03-21T03:31:52.452Z,64.53
2017-03-21T03:32:33.032Z,64.82
2017-03-21T03:33:13.619Z,64.82
2017-03-21T03:33:54.204Z,64.53
2017-03-21T03:34:34.783Z,64.73
2017-03-21T03:35:15.353Z,64.63
2017-03-21T03:35:55.945Z,64.95
2017-03-21T03:36:36.521Z,64.82
2017-03-21T03:37:17.101Z,64.63
2017-03-21T03:37:57.677Z,64.66
2017-03-21T03:38:38.254Z,64.34
2017-03-21T03:39:18.839Z,64.76
2017-03-21T03:39:59.426Z,64.25
2017-03-21T03:40:40.005Z,64.66
2017-03-21T03:41:20.579Z,64.37
2017-03-21T03:42:01.161Z,64.63
2017-03-21T03:42:41.746Z,64.43
2017-03-21T03:43:22.333Z,64.43
2017-03-21T03:44:02.908Z,64.63
2017-03-21T03:44:43.480Z,64.56
2017-03-21T03:45:24.063Z,64.53
2017-03-21T03:46:04.648Z,64.63
2017-03-21T03:46:45.231Z,64.53
2017-03-21T03:49:03.168Z,64.53
2017-03-21T03:49:43.750Z,64.82
2017-03-21T03:50:24.316Z,64.66
2017-03-21T03:51:04.895Z,64.82
2017-03-21T03:51:45.487Z,64.73
2017-03-21T03:52:26.057Z,64.53
2017-03-21T03:53:06.635Z,64.73
2017-03-21T03:53:47.225Z,64.63
2017-03-21T03:54:27.805Z,64.82
2017-03-21T03:55:08.372Z,64.73
2017-03-21T03:55:48.948Z,64.86
2017-03-21T03:56:29.541Z,64.43
2017-03-21T03:57:10.120Z,64.28
2017-03-21T03:57:50.695Z,64.34
2017-03-21T03:58:31.274Z,64.43
2017-03-21T03:59:11.864Z,64.34
2017-03-21T03:59:52.434Z,64.43
2017-03-21T04:00:33.013Z,64.53
2017-03-21T04:01:13.599Z,64.73
2017-03-21T04:01:54.177Z,64.82
2017-03-21T04:02:34.761Z,64.76
2017-03-21T04:03:15.337Z,64.82
2017-03-21T04:03:55.918Z,64.53
2017-03-21T04:04:36.491Z,64.82
2017-03-21T04:05:17.081Z,64.66
2017-03-21T04:05:57.665Z,64.53
2017-03-21T04:07:45.180Z,64.82
2017-03-21T04:08:25.762Z,64.66
2017-03-21T04:09:06.345Z,64.63
2017-03-21T04:09:46.922Z,64.66
2017-03-21T04:10:27.505Z,64.63
2017-03-21T04:11:08.074Z,64.66
2017-03-21T04:11:48.663Z,64.53
2017-03-21T04:12:29.251Z,64.73
2017-03-21T04:13:09.828Z,64.53
2017-03-21T04:13:50.413Z,63.57
2017-03-21T04:14:30.986Z,62.99
2017-03-21T04:15:11.570Z,63.7
2017-03-21T04:15:52.153Z,62.93
2017-03-21T04:16:32.735Z,61.65
2017-03-21T04:17:13.420Z,62.35
2017-03-21T04:17:54.291Z,63.18
2017-03-21T04:18:34.897Z,63.12
2017-03-21T04:19:15.478Z,63.09
2017-03-21T04:19:56.205Z,62.9
2017-03-21T04:21:54.026Z,63.09
2017-03-21T04:22:34.614Z,63.12
2017-03-21T04:23:15.288Z,63.18
2017-03-21T04:23:56.262Z,63.28
2017-03-21T04:24:37.071Z,63.31
2017-03-21T04:25:17.667Z,63.18
2017-03-21T04:25:58.334Z,62.99
2017-03-21T04:26:39.118Z,63.48
2017-03-21T04:27:19.947Z,63.79
2017-03-21T04:28:00.930Z,63.38
2017-03-21T04:28:41.721Z,63.48
2017-03-21T04:29:22.296Z,63.38
2017-03-21T04:30:03.015Z,63.28
2017-03-21T04:30:43.930Z,63.57
2017-03-21T04:31:24.504Z,63.57
2017-03-21T04:32:05.111Z,63.38
2017-03-21T04:32:45.947Z,63.57
2017-03-21T04:33:26.656Z,63.57
2017-03-21T04:34:07.597Z,63.67
2017-03-21T04:34:48.445Z,63.67
2017-03-21T04:35:29.419Z,63.38
2017-03-21T04:36:10.389Z,63.67
2017-03-21T04:36:51.000Z,63.86
2017-03-21T04:37:31.788Z,64.34
2017-03-21T04:38:12.604Z,64.18
2017-03-21T04:38:53.350Z,64.25
2017-03-21T04:39:34.422Z,64.05
2017-03-21T04:40:15.099Z,64.15
2017-03-21T04:40:55.787Z,64.25
2017-03-21T04:41:36.567Z,64.18
2017-03-21T04:42:17.314Z,64.08
2017-03-21T04:42:58.024Z,64.18
2017-03-21T04:43:38.607Z,63.95
2017-03-21T04:44:19.174Z,64.08
2017-03-21T04:44:59.748Z,64.47
2017-03-21T04:45:40.332Z,64.43
2017-03-21T04:46:20.918Z,63.31
2017-03-21T04:47:01.490Z,62.35
2017-03-21T04:47:42.069Z,62.8
2017-03-21T04:48:22.645Z,60.69
2017-03-21T04:49:03.227Z,58.86
2017-03-21T04:49:43.806Z,57.22
2017-03-21T04:50:24.392Z,57.6
2017-03-21T04:51:04.969Z,56.45
2017-03-21T04:51:45.547Z,55.11
2017-03-21T04:53:38.153Z,55.37
2017-03-21T04:54:18.731Z,54.02
2017-03-21T04:54:59.349Z,53.25
2017-03-21T04:55:39.896Z,53.16
2017-03-21T04:56:20.457Z,53.64
2017-03-21T04:57:01.039Z,53.16
2017-03-21T04:57:41.621Z,52.94
2017-03-21T04:58:22.194Z,53.13
2017-03-21T04:59:02.774Z,53.52
2017-03-21T04:59:43.348Z,51.88
2017-03-21T05:00:23.929Z,51.98
2017-03-21T05:01:04.508Z,52.94
2017-03-21T05:02:57.111Z,53.11
2017-03-21T05:03:37.689Z,52.91
2017-03-21T05:04:18.262Z,53.58
2017-03-21T05:04:58.845Z,54.06
2017-03-21T05:05:39.427Z,53.87
2017-03-21T05:06:20.007Z,53.08
2017-03-21T05:07:00.584Z,53.27
2017-03-21T05:07:41.156Z,53.36
2017-03-21T05:08:21.717Z,54.04
2017-03-21T05:09:02.306Z,53.85
2017-03-21T05:09:42.897Z,54.52
2017-03-21T05:10:23.457Z,53.56
2017-03-21T05:11:04.049Z,53.66
2017-03-21T05:11:44.616Z,54.23
2017-03-21T05:12:25.184Z,53.66
2017-03-21T05:13:05.771Z,54.49
2017-03-21T05:13:46.344Z,53.63
2017-03-21T05:14:26.913Z,54.78
2017-03-21T05:15:07.478Z,55.07
2017-03-21T05:15:48.058Z,54.78
2017-03-21T05:16:28.642Z,54.97
2017-03-21T05:17:09.205Z,54.78
2017-03-21T05:17:49.791Z,54.11
2017-03-21T05:18:30.413Z,54.21
2017-03-21T05:19:10.954Z,55.16
2017-03-21T05:19:51.525Z,55.07
2017-03-21T05:20:32.107Z,55.16
2017-03-21T05:21:12.680Z,54.97
2017-03-21T05:21:53.270Z,55.93
2017-03-21T05:24:11.211Z,54.66
2017-03-21T05:24:51.789Z,56.29
2017-03-21T05:25:32.375Z,55.74
2017-03-21T05:26:12.946Z,56
2017-03-21T05:26:53.527Z,54.94
2017-03-21T05:27:34.108Z,55.42
2017-03-21T05:28:14.675Z,55.33
2017-03-21T05:28:55.289Z,55.9
2017-03-21T05:31:13.195Z,54.75
2017-03-21T05:31:53.769Z,55.42
2017-03-21T05:32:34.345Z,55.9
2017-03-21T05:34:47.154Z,54.56
2017-03-21T05:35:27.729Z,56.09
2017-03-21T05:36:08.313Z,56.16
2017-03-21T05:36:48.891Z,56.16
2017-03-21T05:37:44.164Z,55.78
2017-03-21T05:38:24.744Z,54.91
2017-03-21T05:39:05.301Z,55.23
2017-03-21T05:39:45.879Z,56.07
2017-03-21T05:40:26.454Z,55.11
2017-03-21T05:41:07.032Z,56.35
2017-03-21T05:41:47.624Z,55.58
2017-03-21T05:42:28.194Z,56.74
2017-03-21T05:43:08.760Z,56.74
2017-03-21T05:43:49.338Z,56.93
2017-03-21T05:44:29.911Z,55.68
2017-03-21T05:45:10.489Z,56.54
2017-03-21T05:45:51.067Z,55.4
2017-03-21T05:46:31.652Z,56.07
2017-03-21T05:47:12.225Z,56.45
2017-03-21T05:47:52.795Z,55.11
2017-03-21T05:48:33.379Z,55.21
2017-03-21T05:49:13.959Z,55.49
2017-03-21T05:49:54.534Z,55.97
2017-03-21T05:50:35.115Z,56.64
2017-03-21T05:51:15.692Z,56.64
2017-03-21T05:51:56.280Z,56.83
2017-03-21T05:54:14.205Z,55.97
2017-03-21T05:54:54.774Z,56.07
2017-03-21T05:55:35.359Z,55.3
2017-03-21T05:56:15.933Z,55.3
2017-03-21T05:56:56.518Z,55.58
2017-03-21T05:57:37.101Z,55.87
2017-03-21T05:58:17.682Z,55.68
2017-03-21T05:58:58.262Z,56.07
2017-03-21T05:59:38.845Z,55.01
2017-03-21T06:00:19.423Z,54.34
2017-03-21T06:00:59.998Z,55.01
2017-03-21T06:01:40.571Z,55.78
2017-03-21T06:02:21.142Z,55.58
2017-03-21T06:03:01.713Z,55.78
2017-03-21T06:03:42.292Z,55.97
2017-03-21T06:04:22.897Z,55.49
2017-03-21T06:05:03.479Z,55.21
2017-03-21T06:05:44.053Z,55.3
2017-03-21T06:06:24.633Z,55.78
2017-03-21T06:08:17.237Z,56.07
2017-03-21T06:08:57.831Z,55.4
2017-03-21T06:10:45.306Z,55.21
2017-03-21T06:11:25.893Z,56.26
2017-03-21T06:12:06.469Z,55.68
2017-03-21T06:12:47.043Z,55.11
2017-03-21T06:13:27.628Z,55.11
2017-03-21T06:14:08.213Z,54.82
2017-03-21T06:14:48.780Z,53.86
2017-03-21T06:15:29.361Z,53.48
2017-03-21T06:16:09.943Z,53.67
2017-03-21T06:16:50.524Z,53.48
2017-03-21T06:17:31.102Z,54.63
2017-03-21T06:18:11.681Z,53.41
2017-03-21T06:18:52.263Z,52.83
2017-03-21T06:19:32.827Z,53.12
2017-03-21T06:20:13.408Z,54.63
2017-03-21T06:22:26.243Z,54.17
2017-03-21T06:23:06.812Z,53.41
2017-03-21T06:23:47.402Z,51.97
2017-03-21T06:24:27.977Z,52.16
2017-03-21T06:25:08.553Z,51.3
2017-03-21T06:25:49.138Z,52.93
2017-03-21T06:26:29.723Z,51.71
2017-03-21T06:27:10.275Z,51.42
2017-03-21T06:27:50.872Z,52.07
2017-03-21T06:28:31.451Z,52
2017-03-21T06:29:12.016Z,52.09
2017-03-21T06:31:09.735Z,51.51
2017-03-21T06:31:50.305Z,51.42
2017-03-21T06:32:30.884Z,52.09
2017-03-21T06:33:11.467Z,52.19
2017-03-21T06:33:52.049Z,52
2017-03-21T06:34:32.621Z,51.42
2017-03-21T06:35:13.194Z,51.9
2017-03-21T06:35:53.769Z,49.98
2017-03-21T06:36:34.350Z,50.65
2017-03-21T06:37:14.919Z,50.37
2017-03-21T06:37:55.498Z,50.65
2017-03-21T06:38:36.069Z,50.08
2017-03-21T06:39:16.652Z,49.5
2017-03-21T06:39:57.228Z,49.5
2017-03-21T06:40:37.807Z,49.88
2017-03-21T06:41:18.389Z,52.12
2017-03-21T06:41:58.973Z,53.46
2017-03-21T06:42:39.552Z,53.66
2017-03-21T06:43:20.130Z,50.87
2017-03-21T06:44:00.715Z,50.58
2017-03-21T06:44:41.290Z,50.01
2017-03-21T06:45:21.861Z,49.36
2017-03-21T06:46:02.447Z,48.21
2017-03-21T06:48:15.274Z,48.79
2017-03-21T06:48:55.843Z,46.58
2017-03-21T06:49:36.432Z,47.25
2017-03-21T06:50:16.988Z,48.21
2017-03-21T06:50:57.578Z,47.46
2017-03-21T06:51:38.146Z,46.5
2017-03-21T06:52:18.716Z,47.27
2017-03-21T06:52:59.301Z,46.98
2017-03-21T06:53:39.883Z,46.31
2017-03-21T06:54:20.469Z,44.89
2017-03-21T06:55:01.048Z,44.41
2017-03-21T06:55:41.626Z,44.7
2017-03-21T06:56:22.203Z,44.51
2017-03-21T06:57:02.780Z,43.74
2017-03-21T06:57:43.358Z,42.97
2017-03-21T06:58:23.938Z,43.07
2017-03-21T06:59:04.506Z,42.68
2017-03-21T06:59:45.074Z,44.22
2017-03-21T07:00:25.657Z,43.95
2017-03-21T07:01:06.245Z,43.76
2017-03-21T07:01:46.819Z,43.47
2017-03-21T07:02:27.395Z,42.03
2017-03-21T07:03:07.977Z,41.91
2017-03-21T07:03:48.557Z,41.72
2017-03-21T07:05:46.266Z,42.2
2017-03-21T07:06:26.850Z,42.68
2017-03-21T07:07:07.417Z,43.07
2017-03-21T07:07:48.000Z,43.74
2017-03-21T07:08:28.579Z,43.35
2017-03-21T07:09:09.161Z,43.07
2017-03-21T07:09:49.731Z,43.28
2017-03-21T07:10:30.317Z,43.18
2017-03-21T07:11:10.883Z,41.83
2017-03-21T07:11:51.453Z,40.88
2017-03-21T07:12:32.040Z,40.01
2017-03-21T07:13:12.603Z,40.3
2017-03-21T07:13:53.179Z,40.03
2017-03-21T07:14:33.756Z,39.43
2017-03-21T07:15:14.333Z,39.74
2017-03-21T07:15:54.906Z,40.41
2017-03-21T07:16:35.485Z,39.45
2017-03-21T07:17:16.041Z,39.68
2017-03-21T07:17:56.600Z,38.53
2017-03-21T07:18:37.196Z,37.68
2017-03-21T07:19:17.752Z,35.98
2017-03-21T07:19:58.333Z,35.03
2017-03-21T07:20:38.913Z,34.68
2017-03-21T07:21:19.490Z,32.68
2017-03-21T07:22:00.055Z,31.81
2017-03-21T07:22:40.637Z,31.04
2017-03-21T07:23:21.215Z,30.85
2017-03-21T07:24:01.789Z,30.29
2017-03-21T07:24:42.361Z,30.2
2017-03-21T07:25:22.938Z,30.2
2017-03-21T07:26:03.519Z,29.91
2017-03-21T07:26:44.108Z,29.33
2017-03-21T07:27:24.697Z,29.52
2017-03-21T07:28:05.267Z,29.43
2017-03-21T07:28:45.853Z,29.41
2017-03-21T07:29:26.432Z,29.12
2017-03-21T07:30:07.019Z,29.32
2017-03-21T07:30:47.595Z,29.6
2017-03-21T07:31:28.172Z,29.32
2017-03-21T07:32:08.754Z,28.34
2017-03-21T07:32:49.331Z,28.17
2017-03-21T07:33:29.910Z,28.17
2017-03-21T07:34:10.477Z,28.65
2017-03-21T07:34:51.054Z,29.24
2017-03-21T07:35:31.630Z,28.39
2017-03-21T07:36:12.204Z,28.11
2017-03-21T07:36:52.791Z,26.75
2017-03-21T07:37:33.367Z,26.57
2017-03-21T07:38:13.944Z,26.28
2017-03-21T07:38:54.530Z,28.13
2017-03-21T07:39:35.099Z,29.97
2017-03-21T07:40:15.674Z,30.55
2017-03-21T07:40:56.248Z,29.68
2017-03-21T07:41:36.828Z,30.18
2017-03-21T07:42:17.409Z,29.69
2017-03-21T07:42:57.983Z,28.91
2017-03-21T07:43:38.577Z,29.4
2017-03-21T07:45:36.298Z,27.37
2017-03-21T07:46:16.863Z,27.47
2017-03-21T07:46:57.453Z,27.19
2017-03-21T07:47:38.026Z,26.92
2017-03-21T07:48:18.604Z,25.96
2017-03-21T07:50:30.994Z,25.58
2017-03-21T07:51:11.577Z,23.84
2017-03-21T07:51:52.158Z,24.52
2017-03-21T07:52:32.746Z,24.51
2017-03-21T07:53:13.329Z,24.32
2017-03-21T07:53:53.898Z,24.33
2017-03-21T07:54:34.480Z,23.07
2017-03-21T07:55:15.062Z,23.36
2017-03-21T07:55:55.644Z,23.07
2017-03-21T07:56:36.923Z,24.04
2017-03-21T07:57:17.511Z,23.94
2017-03-21T07:57:58.099Z,22.47
2017-03-21T07:58:38.665Z,22.37
2017-03-21T07:59:19.246Z,22.85
2017-03-21T07:59:59.823Z,22.45
2017-03-21T08:00:40.398Z,22.65
2017-03-21T08:01:20.972Z,23.13
2017-03-21T08:02:01.554Z,23.42
2017-03-21T08:02:42.131Z,23.03
2017-03-21T08:03:22.713Z,22.17
2017-03-21T08:04:03.294Z,22.16
2017-03-21T08:04:43.889Z,22.45
2017-03-21T08:05:24.459Z,22.37
2017-03-21T08:06:05.059Z,22.55
2017-03-21T08:06:45.638Z,21.88
2017-03-21T08:07:26.212Z,22.44
2017-03-21T08:08:06.795Z,22.44
2017-03-21T08:08:47.373Z,23.21
2017-03-21T08:09:27.956Z,22.72
2017-03-21T08:10:08.539Z,23.2
2017-03-21T08:10:49.118Z,23.02
2017-03-21T08:11:29.695Z,22.64
2017-03-21T08:12:10.286Z,21.86
2017-03-21T08:12:50.867Z,22.16
2017-03-21T08:13:31.457Z,22.07
2017-03-21T08:14:12.035Z,21.79
2017-03-21T08:14:52.615Z,21.2
2017-03-21T08:15:33.188Z,21.69
2017-03-21T08:16:13.774Z,21.31
2017-03-21T08:18:01.282Z,21.22
2017-03-21T08:18:41.850Z,20.63
2017-03-21T08:19:22.441Z,20.54
2017-03-21T08:20:03.036Z,19.67
2017-03-21T08:20:43.610Z,19.78
2017-03-21T08:21:24.191Z,19.27
2017-03-21T08:22:04.768Z,19.57
2017-03-21T08:22:45.343Z,19.87
2017-03-21T08:23:25.926Z,19.09
2017-03-21T08:24:06.510Z,17.83
2017-03-21T08:24:47.085Z,17.37
2017-03-21T08:25:27.651Z,16.8
2017-03-21T08:26:08.263Z,16.31
2017-03-21T08:26:48.817Z,17
2017-03-21T08:27:29.394Z,16.23
2017-03-21T08:28:09.982Z,16.53
2017-03-21T08:28:50.555Z,15.75
2017-03-21T08:29:31.129Z,14.97
2017-03-21T08:30:11.721Z,13.9
2017-03-21T08:30:52.300Z,13.32
2017-03-21T08:31:32.886Z,13.53
2017-03-21T08:32:13.471Z,13.14
2017-03-21T08:32:54.053Z,13.34
2017-03-21T08:33:34.637Z,12.37
2017-03-21T08:34:15.219Z,12.08
2017-03-21T08:34:55.803Z,12.68
2017-03-21T08:35:36.379Z,12.48
2017-03-21T08:36:16.960Z,12.59
2017-03-21T08:36:57.553Z,12.19
2017-03-21T08:37:38.133Z,11.31
2017-03-21T08:38:18.715Z,11.81
2017-03-21T08:38:59.305Z,11.91
2017-03-21T08:39:39.887Z,11.02
2017-03-21T08:40:20.468Z,10.24
2017-03-21T08:41:01.048Z,9.65
2017-03-21T08:41:41.638Z,10.04
2017-03-21T08:42:22.218Z,10.43
2017-03-21T08:43:02.795Z,10.42
2017-03-21T08:43:43.367Z,10.82
2017-03-21T08:44:23.936Z,11.31
2017-03-21T08:45:04.527Z,11.5
2017-03-21T08:45:45.103Z,10.9
2017-03-21T08:46:25.671Z,11.78
2017-03-21T08:47:06.250Z,12.57
2017-03-21T08:47:46.837Z,12.85
2017-03-21T08:48:27.416Z,12.65
2017-03-21T08:49:08.003Z,12.35
2017-03-21T08:49:48.588Z,12.35
2017-03-21T08:50:29.165Z,12.55
2017-03-21T08:51:09.742Z,12.75
2017-03-21T08:51:50.317Z,13.24
2017-03-21T08:52:30.896Z,12.36
2017-03-21T08:53:11.471Z,11.97
2017-03-21T08:53:52.057Z,12.55
2017-03-21T08:54:32.642Z,12.15
2017-03-21T08:55:13.214Z,12.15
2017-03-21T08:55:53.790Z,11.76
2017-03-21T08:56:34.374Z,13.13
2017-03-21T08:57:14.961Z,13.12
2017-03-21T08:57:55.533Z,13.21
2017-03-21T08:58:36.118Z,14.37
2017-03-21T08:59:16.699Z,15.05
2017-03-21T08:59:57.287Z,15.44
2017-03-21T09:00:37.859Z,15.71
2017-03-21T09:01:18.440Z,15.61
2017-03-21T09:01:59.003Z,15.99
2017-03-21T09:02:39.585Z,16.37
2017-03-21T09:03:20.160Z,17.82
2017-03-21T09:04:00.733Z,17.82
2017-03-21T09:04:41.320Z,18.19
2017-03-21T09:05:21.891Z,18.38
2017-03-21T09:06:02.474Z,18.19
2017-03-21T09:06:43.066Z,18.86
2017-03-21T09:07:23.642Z,18.75
2017-03-21T09:08:04.209Z,19.42
2017-03-21T09:08:44.782Z,19.42
2017-03-21T09:09:25.365Z,20
2017-03-21T09:10:05.956Z,20.77
2017-03-21T09:10:46.527Z,21.05
2017-03-21T09:11:27.100Z,20.96
2017-03-21T09:12:07.697Z,21.04
2017-03-21T09:12:48.287Z,21.24
2017-03-21T09:13:28.861Z,21.82
2017-03-21T09:14:09.439Z,22.02
2017-03-21T09:14:50.030Z,21.42
2017-03-21T09:15:30.610Z,22.3
2017-03-21T09:16:11.184Z,23.07
2017-03-21T09:16:51.749Z,23.07
2017-03-21T09:17:32.334Z,23.36
2017-03-21T09:18:12.919Z,23.07
2017-03-21T09:18:53.490Z,23.16
2017-03-21T09:19:34.067Z,23.06
2017-03-21T09:20:14.638Z,23.64
2017-03-21T09:20:55.217Z,23.25